createdAt,value
2019-03-04T00:04:34.822Z,32.73
2019-03-04T00:09:37.793Z,39.37
2019-03-04T00:14:41.187Z,37.20
2019-03-04T00:19:44.410Z,43.97
2019-03-04T00:24:47.970Z,38.27
2019-03-04T00:29:51.541Z,36.97
2019-03-04T00:34:54.506Z,35.57
2019-03-04T00:39:58.166Z,35.77
2019-03-04T00:45:00.663Z,28.83
2019-03-04T00:50:04.970Z,36.57
2019-03-04T00:55:08.136Z,39.67
2019-03-04T01:00:17.283Z,28.00
2019-03-04T01:05:38.590Z,35.33
2019-03-04T01:10:44.716Z,27.80
2019-03-04T01:15:48.338Z,41.10
2019-03-04T01:20:51.188Z,31.10
2019-03-04T01:25:54.141Z,32.47
2019-03-04T01:30:57.203Z,30.10
2019-03-04T01:36:00.003Z,36.47
2019-03-04T01:41:03.313Z,31.10
2019-03-04T01:46:07.160Z,50.03
2019-03-04T01:51:10.344Z,34.47
2019-03-04T01:56:13.308Z,35.33
2019-03-04T02:01:16.359Z,35.43
2019-03-04T02:06:19.904Z,34.43
2019-03-04T02:11:22.790Z,37.80
2019-03-04T02:16:26.351Z,30.10
2019-03-04T02:21:29.721Z,31.33
2019-03-04T02:26:34.159Z,33.63
2019-03-04T02:31:37.637Z,29.53
2019-03-04T02:36:40.566Z,36.37
2019-03-04T02:41:43.778Z,29.93
2019-03-04T02:46:46.987Z,29.70
2019-03-04T02:51:50.400Z,22.40
2019-03-04T02:56:53.310Z,24.13
2019-03-04T03:01:56.471Z,28.33
2019-03-04T03:06:59.596Z,27.97
2019-03-04T03:12:02.121Z,36.13
2019-03-04T03:17:05.025Z,24.57
2019-03-04T03:22:08.233Z,40.47
2019-03-04T03:27:11.133Z,28.53
2019-03-04T03:32:14.346Z,26.10
2019-03-04T03:37:17.243Z,26.87
2019-03-04T03:42:20.455Z,20.50
2019-03-04T03:47:22.975Z,24.77
2019-03-04T03:52:25.538Z,19.70
2019-03-04T03:57:29.122Z,23.87
2019-03-04T04:02:32.026Z,28.93
2019-03-04T04:07:35.547Z,19.97
2019-03-04T04:12:38.818Z,22.30
2019-03-04T04:17:41.837Z,17.37
2019-03-04T04:22:44.670Z,19.77
2019-03-04T04:27:48.246Z,16.07
2019-03-04T04:32:51.207Z,18.40
2019-03-04T04:37:54.435Z,14.60
2019-03-04T04:42:57.942Z,17.30
2019-03-04T04:48:01.163Z,17.13
2019-03-04T04:53:04.067Z,11.20
2019-03-04T04:58:07.246Z,18.37
2019-03-04T05:03:10.174Z,10.50
2019-03-04T05:08:13.673Z,14.97
2019-03-04T05:13:17.224Z,15.87
2019-03-04T05:18:20.418Z,11.53
2019-03-04T05:23:23.646Z,9.30
2019-03-04T05:28:27.150Z,12.07
2019-03-04T05:33:30.046Z,12.53
2019-03-04T05:38:33.258Z,9.40
2019-03-04T05:43:36.172Z,9.00
2019-03-04T05:48:39.367Z,12.03
2019-03-04T05:53:42.570Z,15.53
2019-03-04T05:58:45.407Z,16.70
2019-03-04T06:03:48.788Z,10.47
2019-03-04T06:08:51.654Z,15.43
2019-03-04T06:13:54.502Z,19.10
2019-03-04T06:18:57.708Z,14.10
2019-03-04T06:24:00.613Z,21.87
2019-03-04T06:29:03.914Z,10.70
2019-03-04T06:34:07.105Z,12.00
2019-03-04T06:39:10.352Z,12.00
2019-03-04T06:44:13.665Z,12.00
2019-03-04T06:49:17.162Z,8.60
2019-03-04T06:54:54.116Z,6.27
2019-03-04T07:00:48.591Z,12.70
2019-03-04T07:05:52.904Z,6.77
2019-03-04T07:10:56.137Z,9.20
2019-03-04T07:15:59.436Z,5.00
2019-03-04T07:21:02.628Z,5.20
2019-03-04T07:26:05.882Z,12.63
2019-03-04T07:31:08.357Z,5.13
2019-03-04T07:36:11.964Z,6.23
2019-03-04T07:41:14.879Z,6.40
2019-03-04T07:46:18.107Z,15.10
2019-03-04T07:51:20.998Z,2.47
2019-03-04T07:56:24.545Z,7.17
2019-03-04T08:01:27.517Z,2.90
2019-03-04T08:06:30.742Z,5.93
2019-03-04T08:12:22.997Z,8.67
2019-03-04T08:17:25.661Z,2.80
2019-03-04T08:22:28.588Z,6.77
2019-03-04T08:27:31.912Z,3.17
2019-03-04T08:32:34.792Z,6.13
2019-03-04T08:37:38.365Z,8.83
2019-03-04T08:42:41.640Z,2.83
2019-03-04T08:47:44.526Z,2.70
2019-03-04T08:52:47.700Z,6.92
2019-03-04T08:57:51.248Z,4.73
2019-03-04T09:02:54.423Z,3.00
2019-03-04T09:07:57.705Z,2.37
2019-03-04T09:13:00.949Z,3.63
2019-03-04T09:18:04.693Z,5.80
2019-03-04T09:23:07.618Z,4.73
2019-03-04T09:28:10.935Z,1.00
2019-03-04T09:33:14.446Z,2.43
2019-03-04T09:38:17.806Z,1.67
2019-03-04T09:43:21.429Z,1.13
2019-03-04T09:48:25.011Z,6.50
2019-03-04T09:53:28.267Z,2.80
2019-03-04T09:58:30.877Z,2.93
2019-03-04T10:04:33.918Z,2.30
2019-03-04T10:10:08.088Z,2.47
2019-03-04T10:15:44.184Z,2.60
2019-03-04T10:21:17.707Z,3.23
2019-03-04T10:27:06.763Z,0.97
2019-03-04T10:32:54.189Z,1.50
2019-03-04T10:38:11.403Z,2.43
2019-03-04T10:43:30.940Z,0.73
2019-03-04T10:48:33.581Z,6.90
2019-03-04T10:53:36.530Z,1.73
2019-03-04T10:58:40.054Z,1.63
2019-03-04T11:03:43.446Z,5.17
2019-03-04T11:08:46.967Z,9.53
2019-03-04T11:13:50.484Z,3.70
2019-03-04T11:18:54.041Z,3.57
2019-03-04T11:23:57.938Z,1.83
2019-03-04T11:29:00.684Z,6.10
2019-03-04T11:34:04.334Z,4.90
2019-03-04T11:39:25.588Z,3.70
2019-03-04T11:44:28.780Z,2.20
2019-03-04T11:49:31.772Z,1.30
2019-03-04T11:54:35.186Z,6.33
2019-03-04T11:59:38.544Z,13.70
2019-03-04T12:04:42.604Z,3.93
2019-03-04T12:09:45.768Z,6.80
2019-03-04T12:14:48.978Z,6.17
2019-03-04T12:19:52.599Z,7.50
2019-03-04T12:24:55.801Z,9.30
2019-03-04T12:29:58.732Z,7.67
2019-03-04T12:35:02.342Z,8.40
2019-03-04T12:40:07.330Z,16.70
2019-03-04T12:45:12.784Z,3.97
2019-03-04T12:50:21.224Z,6.73
2019-03-04T12:55:24.818Z,7.43
2019-03-04T13:00:28.019Z,2.13
2019-03-04T13:05:31.632Z,2.63
2019-03-04T13:10:34.616Z,5.43
2019-03-04T13:15:37.541Z,14.50
2019-03-04T13:20:40.425Z,3.43
2019-03-04T13:25:43.805Z,3.27
2019-03-04T13:30:47.070Z,3.07
2019-03-04T13:35:50.378Z,1.53
2019-03-04T13:40:55.992Z,3.47
2019-03-04T13:45:58.843Z,4.20
2019-03-04T13:51:02.480Z,4.83
2019-03-04T13:56:05.979Z,15.47
2019-03-04T14:01:09.400Z,7.40
2019-03-04T14:06:13.376Z,8.50
2019-03-04T14:11:16.746Z,5.37
2019-03-04T14:16:19.958Z,5.90
2019-03-04T14:21:23.130Z,4.13
2019-03-04T14:26:26.366Z,4.20
2019-03-04T14:31:28.861Z,13.73
2019-03-04T14:36:32.195Z,4.83
2019-03-04T14:41:35.677Z,5.07
2019-03-04T14:46:38.593Z,5.70
2019-03-04T14:51:41.802Z,8.13
2019-03-04T14:56:44.374Z,3.33
2019-03-04T15:01:47.273Z,10.03
2019-03-04T15:06:50.534Z,9.93
2019-03-04T15:11:53.416Z,5.23
2019-03-04T15:17:03.342Z,2.50
2019-03-04T15:22:02.304Z,5.50
2019-03-04T15:27:06.649Z,6.07
2019-03-04T15:32:10.928Z,2.53
2019-03-04T15:37:16.206Z,5.27
2019-03-04T15:42:19.531Z,2.63
2019-03-04T15:47:22.848Z,2.83
2019-03-04T15:52:25.424Z,6.00
2019-03-04T15:57:28.765Z,5.80
2019-03-04T16:02:32.164Z,6.50
2019-03-04T16:07:35.592Z,13.47
2019-03-04T16:12:38.755Z,9.10
2019-03-04T16:17:41.295Z,8.43
2019-03-04T16:22:44.846Z,9.80
2019-03-04T16:27:48.423Z,12.43
2019-03-04T16:32:52.056Z,13.90
2019-03-04T16:37:55.618Z,19.43
2019-03-04T16:42:59.202Z,23.27
2019-03-04T16:48:02.295Z,28.53
2019-03-04T16:53:06.031Z,28.27
2019-03-04T16:58:09.582Z,26.40
2019-03-04T17:03:13.305Z,31.77
2019-03-04T17:08:16.257Z,32.17
2019-03-04T17:13:19.268Z,30.87
2019-03-04T17:18:22.173Z,36.33
2019-03-04T17:23:24.768Z,31.13
2019-03-04T17:28:28.320Z,19.20
2019-03-04T17:33:31.696Z,21.77
2019-03-04T17:38:35.318Z,32.57
2019-03-04T17:43:38.588Z,27.00
2019-03-04T17:48:42.447Z,35.00
2019-03-04T17:53:46.052Z,21.30
2019-03-04T17:58:49.244Z,30.03
2019-03-04T18:03:54.485Z,44.63
2019-03-04T18:08:58.167Z,33.03
2019-03-04T18:14:01.393Z,31.10
2019-03-04T18:19:04.923Z,33.90
2019-03-04T18:24:08.662Z,40.67
2019-03-04T18:29:39.668Z,46.73
2019-03-04T18:35:13.275Z,57.37
2019-03-04T18:40:47.800Z,39.90
2019-03-04T18:46:19.642Z,37.40
2019-03-04T18:51:22.811Z,54.87
2019-03-04T18:56:26.410Z,49.53
2019-03-04T19:01:30.057Z,48.37
2019-03-04T19:06:35.555Z,39.03
2019-03-04T19:11:42.681Z,67.87
2019-03-04T19:16:47.787Z,46.67
2019-03-04T19:21:55.022Z,44.00
2019-03-04T19:27:02.725Z,55.17
2019-03-04T19:32:10.200Z,39.70
2019-03-04T19:37:18.208Z,40.40
2019-03-04T19:42:28.261Z,46.60
2019-03-04T19:47:35.705Z,37.50
2019-03-04T19:52:44.200Z,53.93
2019-03-04T19:57:51.591Z,51.97
2019-03-04T20:02:59.138Z,43.70
2019-03-04T20:08:09.078Z,47.40
2019-03-04T20:13:16.825Z,46.57
2019-03-04T20:18:21.208Z,52.07
2019-03-04T20:23:25.246Z,58.73
2019-03-04T20:28:32.430Z,46.17
2019-03-04T20:33:39.646Z,38.53
2019-03-04T20:38:48.745Z,40.20
2019-03-04T20:43:55.983Z,29.27
2019-03-04T20:49:03.855Z,46.53
2019-03-04T20:54:11.697Z,35.73
2019-03-04T20:59:18.621Z,35.97
2019-03-04T21:04:25.772Z,33.17
2019-03-04T21:09:33.090Z,35.77
2019-03-04T21:14:40.030Z,55.47
2019-03-04T21:19:44.863Z,26.77
2019-03-04T21:24:48.922Z,43.67
2019-03-04T21:30:42.846Z,29.90
2019-03-04T21:36:19.872Z,41.00
2019-03-04T21:41:43.349Z,43.60
2019-03-04T21:47:08.887Z,21.60
2019-03-04T21:52:37.801Z,24.20
2019-03-04T21:57:46.834Z,24.80
2019-03-04T22:02:56.698Z,34.60
2019-03-04T22:08:00.304Z,33.70
2019-03-04T22:13:04.117Z,50.63
2019-03-04T22:18:08.615Z,39.83
2019-03-04T22:23:11.132Z,32.33
2019-03-04T22:28:14.334Z,32.00
2019-03-04T22:33:17.933Z,37.53
2019-03-04T22:38:21.268Z,34.33
2019-03-04T22:43:24.178Z,31.93
2019-03-04T22:48:27.698Z,41.90
2019-03-04T22:53:30.610Z,39.70
2019-03-04T22:58:34.115Z,35.83
2019-03-04T23:03:37.333Z,44.63
2019-03-04T23:08:40.644Z,41.10
2019-03-04T23:13:53.004Z,41.73
2019-03-04T23:18:56.482Z,28.87
2019-03-04T23:24:00.017Z,35.03
2019-03-04T23:29:03.824Z,42.23
2019-03-04T23:34:07.388Z,35.67
2019-03-04T23:39:10.635Z,42.87
2019-03-04T23:44:14.387Z,38.27
2019-03-04T23:49:17.936Z,40.87
2019-03-04T23:54:22.389Z,35.53
2019-03-04T23:59:25.707Z,32.77
